Time;durP1;ratioP1;P1;durP2;ratioP2;P2;SDS_P1;SDS_P2;PMS_P1;PMS_P2;Temp;Humidity;BMP_temperature;BMP_pressure;BME280_temperature;BME280_humidity;BME280_pressure;Samples;Min_cycle;Max_cycle;Signal;HPM_P1;HPM_P2
2023/06/29 00:01:07;;;;;;;12.80;10.20;;;;;;;13.87;100.00;97796.86;106796;1276;22531;-75
2023/06/29 00:03:54;;;;;;;14.20;10.50;;;;;;;13.88;100.00;97801.00;106738;1276;22570;-75
2023/06/29 00:06:20;;;;;;;12.10;9.10;;;;;;;13.88;100.00;97800.46;106759;1276;25384;-75
2023/06/29 00:08:48;;;;;;;11.50;9.30;;;;;;;13.87;100.00;97804.31;106745;1277;22662;-75
2023/06/29 00:11:15;;;;;;;10.60;9.10;;;;;;;13.89;100.00;97806.38;106964;1277;22989;-74
2023/06/29 00:13:42;;;;;;;10.40;8.40;;;;;;;13.89;100.00;97802.31;106738;1277;22526;-74
2023/06/29 00:16:08;;;;;;;12.20;9.60;;;;;;;13.91;100.00;97801.98;106759;1277;22632;-75
2023/06/29 00:18:35;;;;;;;11.40;9.40;;;;;;;13.91;100.00;97809.24;106753;1276;23146;-76
2023/06/29 00:21:04;;;;;;;14.70;10.20;;;;;;;13.91;100.00;97804.17;106710;1276;22718;-76
2023/06/29 00:23:34;;;;;;;10.80;9.80;;;;;;;13.91;100.00;97800.07;106808;1277;22538;-75
2023/06/29 00:26:02;;;;;;;14.30;10.10;;;;;;;13.93;100.00;97794.98;106807;1277;22544;-76
2023/06/29 00:28:28;;;;;;;12.40;10.30;;;;;;;13.94;100.00;97790.14;106716;1276;22531;-76
2023/06/29 00:30:56;;;;;;;11.80;10.20;;;;;;;13.96;100.00;97786.80;106527;1277;22633;-76
2023/06/29 00:33:23;;;;;;;12.70;10.20;;;;;;;13.98;100.00;97783.80;106740;1276;22531;-76
2023/06/29 00:35:50;;;;;;;14.70;10.40;;;;;;;13.98;100.00;97782.34;106709;1276;24030;-75
2023/06/29 00:38:16;;;;;;;11.50;10.10;;;;;;;13.98;100.00;97782.02;106704;1276;22744;-75
2023/06/29 00:40:43;;;;;;;12.60;10.20;;;;;;;14.00;100.00;97788.08;106742;1276;25331;-75
2023/06/29 00:43:10;;;;;;;13.60;11.20;;;;;;;14.01;100.00;97787.88;106506;1276;22538;-75
2023/06/29 00:45:37;;;;;;;13.80;10.30;;;;;;;14.02;100.00;97788.59;106705;1276;22652;-75
2023/06/29 00:48:05;;;;;;;15.30;11.20;;;;;;;14.02;100.00;97786.29;106705;1277;22654;-76
2023/06/29 00:50:34;;;;;;;13.70;10.20;;;;;;;14.04;100.00;97789.39;106675;1277;24368;-75
2023/06/29 00:53:02;;;;;;;12.30;10.60;;;;;;;14.05;100.00;97788.73;106840;1276;25605;-75
2023/06/29 00:55:28;;;;;;;12.00;10.60;;;;;;;14.06;100.00;97785.21;106722;1276;22641;-75
2023/06/29 00:57:55;;;;;;;12.60;10.60;;;;;;;14.07;100.00;97783.48;106688;1276;22534;-75
2023/06/29 01:00:22;;;;;;;11.10;9.90;;;;;;;14.07;100.00;97776.13;106668;1276;22588;-76
2023/06/29 01:02:49;;;;;;;12.30;10.30;;;;;;;14.06;100.00;97779.81;106689;1277;25325;-76
2023/06/29 01:05:17;;;;;;;15.90;10.00;;;;;;;14.07;100.00;97775.48;106741;1276;22535;-76
2023/06/29 01:08:11;;;;;;;14.90;10.40;;;;;;;14.05;100.00;97778.52;106753;1276;24249;-77
2023/06/29 01:10:38;;;;;;;11.70;9.90;;;;;;;14.03;100.00;97773.39;106830;1276;24391;-75
2023/06/29 01:13:07;;;;;;;14.40;10.30;;;;;;;14.02;100.00;97773.52;107026;1276;22765;-75
2023/06/29 01:15:36;;;;;;;14.50;10.20;;;;;;;14.01;100.00;97777.35;106732;1276;22541;-76
2023/06/29 01:18:04;;;;;;;15.80;10.50;;;;;;;14.01;100.00;97778.21;106769;1276;24386;-76
2023/06/29 01:20:32;;;;;;;13.60;10.60;;;;;;;14.02;100.00;97776.23;106872;1277;24195;-76
2023/06/29 01:23:17;;;;;;;11.80;9.60;;;;;;;14.04;100.00;97777.79;106778;1277;22531;-76
2023/06/29 01:25:44;;;;;;;14.90;10.70;;;;;;;14.05;100.00;97775.71;106658;1276;26328;-75
2023/06/29 01:28:11;;;;;;;15.80;10.50;;;;;;;14.07;100.00;97775.81;106846;1276;24466;-75
2023/06/29 01:30:45;;;;;;;13.70;10.20;;;;;;;14.07;100.00;97777.61;106835;1277;23055;-76
2023/06/29 01:33:13;;;;;;;14.10;11.00;;;;;;;14.08;100.00;97777.40;106708;1277;24330;-76
2023/06/29 01:35:41;;;;;;;16.00;11.00;;;;;;;14.09;100.00;97777.84;106966;1276;22476;-76
2023/06/29 01:38:23;;;;;;;15.20;10.60;;;;;;;14.10;100.00;97776.40;106547;1276;22784;-76
2023/06/29 01:40:52;;;;;;;14.10;12.50;;;;;;;14.13;100.00;97773.23;106669;1277;23909;-75
2023/06/29 01:43:20;;;;;;;16.80;13.80;;;;;;;14.15;100.00;97773.89;106667;1276;22582;-75
2023/06/29 01:45:47;;;;;;;18.00;15.30;;;;;;;14.16;100.00;97776.09;106775;1276;24212;-75
2023/06/29 01:48:15;;;;;;;20.00;17.30;;;;;;;14.14;100.00;97776.70;106632;1276;24092;-75
2023/06/29 01:50:42;;;;;;;21.60;19.50;;;;;;;14.12;100.00;97774.54;106724;1277;22539;-75
2023/06/29 01:53:08;;;;;;;24.00;21.60;;;;;;;14.12;100.00;97776.30;106746;1276;24272;-76
2023/06/29 01:55:36;;;;;;;23.00;20.70;;;;;;;14.10;100.00;97776.85;106695;1276;23499;-75
2023/06/29 01:58:02;;;;;;;24.70;22.30;;;;;;;14.08;100.00;97773.91;106678;1277;25397;-75
2023/06/29 02:00:29;;;;;;;24.20;21.80;;;;;;;14.08;100.00;97778.09;106807;1276;22545;-75
2023/06/29 02:02:56;;;;;;;21.90;19.80;;;;;;;14.09;100.00;97775.80;106601;1276;23243;-76
2023/06/29 02:05:24;;;;;;;26.80;22.40;;;;;;;14.07;100.00;97774.66;106728;1276;24335;-75
2023/06/29 02:07:51;;;;;;;24.00;21.50;;;;;;;14.06;100.00;97773.39;106838;1276;25344;-75
2023/06/29 02:10:20;;;;;;;25.00;22.50;;;;;;;14.05;100.00;97775.80;106742;1277;22666;-76
2023/06/29 02:12:47;;;;;;;23.50;21.10;;;;;;;14.06;100.00;97780.88;106731;1276;22539;-77
2023/06/29 02:15:13;;;;;;;24.30;21.80;;;;;;;14.07;100.00;97780.16;107029;1277;25287;-76
2023/06/29 02:17:40;;;;;;;22.80;20.60;;;;;;;14.09;100.00;97780.45;106749;1277;22701;-76
2023/06/29 02:20:11;;;;;;;22.60;20.50;;;;;;;14.09;100.00;97783.09;106792;1276;25343;-77
2023/06/29 02:22:37;;;;;;;21.60;19.70;;;;;;;14.10;100.00;97779.17;106719;1276;22554;-77
2023/06/29 02:25:04;;;;;;;25.90;22.50;;;;;;;14.08;100.00;97777.61;106746;1276;22546;-76
2023/06/29 02:27:31;;;;;;;26.20;23.60;;;;;;;14.08;100.00;97785.91;106727;1276;24652;-77
2023/06/29 02:29:58;;;;;;;25.20;22.60;;;;;;;14.06;100.00;97782.60;106950;1276;25552;-76
2023/06/29 02:32:24;;;;;;;22.20;20.10;;;;;;;14.08;100.00;97787.31;106670;1276;22648;-77
2023/06/29 02:34:51;;;;;;;22.90;20.60;;;;;;;14.10;100.00;97787.39;106766;1277;22543;-76
2023/06/29 02:37:18;;;;;;;24.40;22.20;;;;;;;14.07;100.00;97787.67;106545;1276;25462;-76
2023/06/29 02:39:45;;;;;;;25.00;22.60;;;;;;;14.07;100.00;97787.21;106684;1276;24255;-77
2023/06/29 02:42:12;;;;;;;24.60;22.10;;;;;;;14.08;100.00;97790.94;106717;1277;22807;-76
2023/06/29 02:44:38;;;;;;;25.90;23.40;;;;;;;14.05;100.00;97790.91;106748;1276;24238;-76
2023/06/29 02:47:05;;;;;;;29.50;26.60;;;;;;;14.06;100.00;97790.86;106634;1277;22648;-77
2023/06/29 02:49:32;;;;;;;24.80;22.40;;;;;;;14.06;100.00;97793.73;106468;1276;26575;-77
2023/06/29 02:51:59;;;;;;;23.20;21.10;;;;;;;14.05;100.00;97796.45;106937;1276;24283;-77
2023/06/29 02:54:26;;;;;;;24.90;22.30;;;;;;;14.01;100.00;97794.44;106820;1277;23304;-77
2023/06/29 02:56:53;;;;;;;24.20;21.70;;;;;;;14.04;100.00;97800.67;106831;1276;22533;-77
2023/06/29 02:59:21;;;;;;;23.10;20.90;;;;;;;14.03;100.00;97800.20;106519;1276;22540;-77
2023/06/29 03:01:47;;;;;;;24.90;22.50;;;;;;;14.04;100.00;97796.13;106630;1277;24227;-77
2023/06/29 03:04:14;;;;;;;27.50;25.00;;;;;;;14.01;100.00;97801.35;106711;1276;25233;-77
2023/06/29 03:06:40;;;;;;;27.60;24.80;;;;;;;14.00;100.00;97801.16;106800;1277;22534;-77
2023/06/29 03:09:07;;;;;;;28.80;26.20;;;;;;;14.02;100.00;97800.13;106503;1276;24640;-76
2023/06/29 03:11:34;;;;;;;31.00;28.10;;;;;;;14.03;100.00;97807.69;106690;1276;24735;-76
2023/06/29 03:14:01;;;;;;;29.20;26.40;;;;;;;14.01;100.00;97807.85;106635;1276;22542;-76
2023/06/29 03:16:27;;;;;;;28.90;26.00;;;;;;;14.02;100.00;97809.58;106609;1276;25422;-76
2023/06/29 03:18:54;;;;;;;30.30;27.40;;;;;;;14.02;100.00;97812.59;106646;1254;22538;-76
2023/06/29 03:21:20;;;;;;;32.20;26.20;;;;;;;14.01;100.00;97814.20;106728;1276;24252;-75
2023/06/29 03:23:48;;;;;;;29.20;26.20;;;;;;;13.99;100.00;97815.12;106661;1276;22549;-76
2023/06/29 03:26:15;;;;;;;28.30;25.50;;;;;;;13.99;100.00;97818.05;106698;1276;24199;-76
2023/06/29 03:28:42;;;;;;;30.10;24.70;;;;;;;14.00;100.00;97814.93;106631;1276;25551;-76
2023/06/29 03:31:08;;;;;;;29.10;26.30;;;;;;;14.00;100.00;97816.40;106709;1276;22526;-76
2023/06/29 03:33:35;;;;;;;28.10;25.50;;;;;;;14.00;100.00;97817.96;106683;1276;22622;-76
2023/06/29 03:36:02;;;;;;;29.30;25.40;;;;;;;14.01;100.00;97819.55;106611;1276;24160;-77
2023/06/29 03:38:29;;;;;;;29.30;26.40;;;;;;;14.01;100.00;97823.88;106783;1276;22551;-76
2023/06/29 03:40:55;;;;;;;29.90;27.00;;;;;;;14.03;100.00;97824.86;106782;1276;25352;-76
2023/06/29 03:43:22;;;;;;;31.10;28.10;;;;;;;14.04;100.00;97827.80;106768;1276;25484;-76
2023/06/29 03:45:48;;;;;;;29.40;26.30;;;;;;;14.06;100.00;97829.90;106726;1276;22579;-76
2023/06/29 03:48:15;;;;;;;27.30;24.50;;;;;;;14.06;100.00;97830.56;106737;1276;25642;-76
2023/06/29 03:50:42;;;;;;;28.10;25.20;;;;;;;14.05;100.00;97832.25;106680;1266;22551;-77
2023/06/29 03:53:10;;;;;;;28.30;25.50;;;;;;;14.07;100.00;97837.58;106720;1276;24453;-76
2023/06/29 03:55:36;;;;;;;27.90;24.90;;;;;;;14.08;100.00;97839.01;106655;1276;22593;-75
2023/06/29 03:58:03;;;;;;;29.70;26.40;;;;;;;14.09;100.00;97844.02;106660;1276;22549;-75
2023/06/29 04:00:30;;;;;;;30.00;26.60;;;;;;;14.11;100.00;97844.48;106699;1276;22528;-76
2023/06/29 04:02:56;;;;;;;28.90;26.20;;;;;;;14.13;100.00;97844.02;107354;1276;22566;-76
2023/06/29 04:05:23;;;;;;;28.00;25.00;;;;;;;14.16;100.00;97843.89;107398;1276;24228;-75
2023/06/29 04:07:50;;;;;;;28.00;24.20;;;;;;;14.19;100.00;97844.11;106741;1276;25338;-76
2023/06/29 04:10:17;;;;;;;25.70;23.10;;;;;;;14.21;100.00;97844.59;106772;1269;22539;-76
2023/06/29 04:12:44;;;;;;;27.00;24.20;;;;;;;14.23;100.00;97842.71;106559;1277;22530;-77
2023/06/29 04:15:10;;;;;;;25.30;22.90;;;;;;;14.25;100.00;97845.84;106679;1277;22526;-80
2023/06/29 04:17:37;;;;;;;26.90;24.00;;;;;;;14.28;100.00;97848.55;107062;1276;25346;-77
2023/06/29 04:20:05;;;;;;;28.50;25.80;;;;;;;14.30;100.00;97851.57;106808;1276;23477;-78
2023/06/29 04:22:31;;;;;;;28.00;25.30;;;;;;;14.32;100.00;97850.70;106619;1276;23934;-77
2023/06/29 04:24:58;;;;;;;27.60;24.90;;;;;;;14.32;100.00;97850.77;106646;1276;25472;-78
2023/06/29 04:27:24;;;;;;;27.70;25.00;;;;;;;14.36;100.00;97854.80;106650;1256;24205;-76
2023/06/29 04:29:51;;;;;;;27.60;23.70;;;;;;;14.38;100.00;97858.36;106807;1276;23393;-78
2023/06/29 04:32:18;;;;;;;25.70;23.40;;;;;;;14.38;100.00;97863.34;106618;1269;24408;-78
2023/06/29 04:34:47;;;;;;;22.70;20.60;;;;;;;14.39;100.00;97863.52;106729;1276;22677;-76
2023/06/29 04:37:14;;;;;;;24.00;21.60;;;;;;;14.46;100.00;97864.63;106740;1276;25439;-76
2023/06/29 04:39:41;;;;;;;27.20;24.40;;;;;;;14.54;100.00;97864.81;106856;1276;25366;-76
2023/06/29 04:42:13;;;;;;;23.00;20.60;;;;;;;14.63;100.00;97864.40;106673;1276;24495;-76
2023/06/29 04:44:39;;;;;;;27.70;24.90;;;;;;;14.66;100.00;97864.64;106747;1276;220691;-79
2023/06/29 04:47:06;;;;;;;28.00;25.50;;;;;;;14.65;100.00;97863.78;106961;1276;22609;-78
2023/06/29 04:49:38;;;;;;;27.90;25.20;;;;;;;14.65;100.00;97864.48;106998;1269;22656;-78
2023/06/29 04:52:06;;;;;;;26.40;23.80;;;;;;;14.67;100.00;97868.33;106628;1276;23288;-78
2023/06/29 04:54:33;;;;;;;27.00;23.70;;;;;;;14.66;100.00;97868.95;106601;1276;22612;-75
2023/06/29 04:56:59;;;;;;;40.60;33.30;;;;;;;14.67;100.00;97871.74;107059;1276;25254;-74
2023/06/29 04:59:28;;;;;;;27.90;25.10;;;;;;;14.69;100.00;97872.77;107057;1276;22645;-75
2023/06/29 05:01:55;;;;;;;25.90;23.70;;;;;;;14.73;100.00;97871.46;107125;1276;23450;-75
2023/06/29 05:04:22;;;;;;;25.90;23.60;;;;;;;14.75;100.00;97872.54;106907;1276;22553;-75
2023/06/29 05:06:48;;;;;;;25.80;23.50;;;;;;;14.76;100.00;97872.50;106990;1276;22534;-75
2023/06/29 05:09:15;;;;;;;26.10;23.50;;;;;;;14.81;100.00;97873.91;106939;1276;23900;-75
2023/06/29 05:11:42;;;;;;;28.40;25.70;;;;;;;14.85;100.00;97876.48;106947;1276;24393;-74
2023/06/29 05:14:09;;;;;;;29.20;26.00;;;;;;;14.87;100.00;97877.74;106964;1276;22534;-75
2023/06/29 05:16:36;;;;;;;27.70;25.00;;;;;;;14.84;100.00;97872.11;106920;1276;22795;-74
2023/06/29 05:19:04;;;;;;;31.10;27.90;;;;;;;14.82;100.00;97869.88;106920;1276;22549;-75
2023/06/29 05:21:31;;;;;;;31.00;27.60;;;;;;;14.83;100.00;97867.59;106909;1276;25328;-75
2023/06/29 05:23:58;;;;;;;33.50;30.00;;;;;;;14.86;100.00;97870.40;106949;1276;22543;-75
2023/06/29 05:26:25;;;;;;;33.20;30.00;;;;;;;14.87;100.00;97869.36;107612;1276;22595;-76
2023/06/29 05:28:51;;;;;;;32.40;29.40;;;;;;;14.90;100.00;97872.15;107301;1276;22557;-76
2023/06/29 05:31:32;;;;;;;30.90;27.80;;;;;;;14.95;100.00;97871.23;107542;1276;23760;-75
2023/06/29 05:33:59;;;;;;;29.80;26.70;;;;;;;14.96;100.00;97868.66;107383;1276;23931;-74
2023/06/29 05:36:26;;;;;;;31.00;28.20;;;;;;;15.00;100.00;97871.25;107482;1276;22633;-75
2023/06/29 05:38:53;;;;;;;28.80;26.30;;;;;;;15.05;100.00;97872.46;107307;1276;23799;-75
2023/06/29 05:41:19;;;;;;;28.90;26.10;;;;;;;15.06;100.00;97876.91;107751;1276;22915;-75
2023/06/29 05:43:46;;;;;;;28.30;25.30;;;;;;;15.05;100.00;97881.29;107279;1276;22983;-75
2023/06/29 05:46:12;;;;;;;26.80;24.20;;;;;;;15.03;100.00;97878.42;107157;1276;22622;-76
2023/06/29 05:48:39;;;;;;;24.80;22.40;;;;;;;15.04;100.00;97881.35;107341;1276;22765;-76
2023/06/29 05:51:06;;;;;;;26.40;23.80;;;;;;;15.04;100.00;97884.52;107674;1276;23267;-76
2023/06/29 05:53:33;;;;;;;27.40;24.90;;;;;;;15.03;100.00;97885.51;107618;1276;22533;-76
2023/06/29 05:56:00;;;;;;;27.30;24.80;;;;;;;15.07;100.00;97882.86;107387;1276;23767;-77
2023/06/29 05:58:26;;;;;;;25.70;23.20;;;;;;;15.10;100.00;97883.60;106895;1276;25353;-77
2023/06/29 06:00:53;;;;;;;24.60;22.30;;;;;;;15.14;100.00;97885.98;106965;1276;22549;-77
2023/06/29 06:03:21;;;;;;;20.90;18.90;;;;;;;15.20;100.00;97888.89;106967;1276;22652;-77
2023/06/29 06:05:48;;;;;;;22.00;19.70;;;;;;;15.24;100.00;97893.05;107172;1276;23191;-77
2023/06/29 06:08:14;;;;;;;21.90;19.60;;;;;;;15.28;100.00;97889.00;106969;1276;22630;-78
2023/06/29 06:10:42;;;;;;;23.70;21.60;;;;;;;15.35;100.00;97891.16;106921;1269;22603;-78
2023/06/29 06:13:09;;;;;;;24.00;22.00;;;;;;;15.40;100.00;97889.97;106978;1276;24062;-78
2023/06/29 06:15:35;;;;;;;22.50;20.30;;;;;;;15.50;100.00;97887.42;107458;1276;24242;-77
2023/06/29 06:18:02;;;;;;;22.20;20.30;;;;;;;15.57;100.00;97892.98;106973;1277;22950;-77
2023/06/29 06:20:29;;;;;;;24.30;21.90;;;;;;;15.60;100.00;97888.13;107277;1277;24193;-77
2023/06/29 06:22:56;;;;;;;24.80;22.40;;;;;;;15.64;100.00;97891.52;106951;1277;25145;-77
2023/06/29 06:25:22;;;;;;;24.20;21.80;;;;;;;15.68;100.00;97893.55;106995;1276;24084;-77
2023/06/29 06:27:49;;;;;;;20.30;18.30;;;;;;;15.74;100.00;97893.33;106964;1276;22541;-77
2023/06/29 06:30:16;;;;;;;21.30;19.30;;;;;;;15.77;100.00;97891.64;106934;1276;22575;-77
2023/06/29 06:32:42;;;;;;;28.60;22.60;;;;;;;15.81;100.00;97892.71;106906;1254;25425;-77
2023/06/29 06:35:09;;;;;;;61.80;34.40;;;;;;;15.89;100.00;97892.87;106944;1276;25725;-77
2023/06/29 06:37:37;;;;;;;121.10;47.40;;;;;;;16.01;100.00;97895.29;107517;1276;22585;-77
2023/06/29 06:40:07;;;;;;;74.90;39.50;;;;;;;16.10;100.00;97897.40;106915;1276;24182;-77
2023/06/29 06:42:35;;;;;;;60.70;36.70;;;;;;;16.16;100.00;97898.61;106932;1276;24346;-78
2023/06/29 06:45:06;;;;;;;28.30;21.00;;;;;;;16.15;100.00;97900.99;106903;1276;22718;-77
2023/06/29 06:47:34;;;;;;;19.80;17.30;;;;;;;16.14;100.00;97901.27;106896;1276;22537;-76
2023/06/29 06:50:01;;;;;;;18.30;16.40;;;;;;;16.15;100.00;97901.08;109754;1276;22545;-77
2023/06/29 06:52:28;;;;;;;21.00;18.90;;;;;;;16.16;100.00;97901.19;106918;1276;25421;-78
2023/06/29 06:54:59;;;;;;;21.80;19.60;;;;;;;16.17;100.00;97901.60;106937;1276;22989;-77
2023/06/29 06:57:25;;;;;;;20.00;18.20;;;;;;;16.17;100.00;97902.39;106934;1276;25337;-77
2023/06/29 06:59:52;;;;;;;20.60;18.80;;;;;;;16.13;100.00;97903.17;106880;1276;24066;-77
2023/06/29 07:02:20;;;;;;;20.70;18.60;;;;;;;16.09;100.00;97906.60;106928;1276;22995;-77
2023/06/29 07:04:47;;;;;;;22.90;20.90;;;;;;;16.07;100.00;97901.73;107931;1276;22539;-77
2023/06/29 07:07:14;;;;;;;19.90;16.90;;;;;;;16.14;100.00;97902.58;107545;1276;25081;-77
2023/06/29 07:09:40;;;;;;;15.50;14.00;;;;;;;16.20;100.00;97903.73;106929;1255;24193;-77
2023/06/29 07:12:09;;;;;;;17.70;16.00;;;;;;;16.24;100.00;97906.35;106918;1276;22534;-77
2023/06/29 07:14:36;;;;;;;16.60;15.00;;;;;;;16.30;100.00;97907.51;109376;1276;23365;-77
2023/06/29 07:17:03;;;;;;;14.50;13.20;;;;;;;16.40;100.00;97905.88;106952;1276;23947;-76
2023/06/29 07:19:30;;;;;;;13.30;11.90;;;;;;;16.44;100.00;97903.20;106885;1276;22530;-77
2023/06/29 07:22:00;;;;;;;14.80;12.80;;;;;;;16.57;100.00;97902.10;106930;1276;25411;-78
2023/06/29 07:24:29;;;;;;;16.90;15.00;;;;;;;16.63;100.00;97899.91;106900;1276;24105;-77
2023/06/29 07:26:56;;;;;;;16.90;15.30;;;;;;;16.65;100.00;97902.60;106958;1276;22642;-76
2023/06/29 07:29:22;;;;;;;18.60;14.10;;;;;;;16.66;100.00;97902.85;106900;1276;22987;-76
2023/06/29 07:31:49;;;;;;;15.00;11.30;;;;;;;16.68;100.00;97907.86;106841;1276;25405;-76
2023/06/29 07:34:19;;;;;;;14.00;12.60;;;;;;;16.68;100.00;97905.20;107389;1276;22681;-76
2023/06/29 07:36:45;;;;;;;15.20;11.10;;;;;;;16.73;100.00;97902.34;106985;1276;24097;-77
2023/06/29 07:39:12;;;;;;;11.60;10.40;;;;;;;16.84;100.00;97913.06;107354;1276;22639;-76
2023/06/29 07:41:38;;;;;;;10.30;9.30;;;;;;;16.89;100.00;97914.38;106960;1276;24074;-77
2023/06/29 07:44:05;;;;;;;12.70;9.40;;;;;;;16.99;100.00;97905.61;107025;1276;22731;-77
2023/06/29 07:46:32;;;;;;;13.20;11.10;;;;;;;17.15;100.00;97904.02;107238;1276;22616;-77
2023/06/29 07:48:59;;;;;;;11.40;10.00;;;;;;;17.33;100.00;97902.28;107492;1276;23416;-77
2023/06/29 07:51:32;;;;;;;11.90;10.50;;;;;;;17.58;100.00;97900.69;106942;1276;22534;-78
2023/06/29 07:54:00;;;;;;;12.10;10.90;;;;;;;17.60;99.68;97907.08;107671;1276;22601;-77
2023/06/29 07:56:28;;;;;;;10.60;9.50;;;;;;;17.59;99.27;97907.51;106950;1276;25405;-77
2023/06/29 07:59:15;;;;;;;11.00;9.90;;;;;;;17.56;98.43;97908.29;106990;1266;22596;-77
2023/06/29 08:01:42;;;;;;;14.40;11.80;;;;;;;17.51;98.35;97901.99;106930;1276;22533;-76
2023/06/29 08:04:08;;;;;;;17.20;12.60;;;;;;;17.49;99.07;97904.96;106944;1276;22632;-77
2023/06/29 08:06:41;;;;;;;14.80;13.10;;;;;;;17.50;99.18;97912.30;107016;1276;25386;-76
2023/06/29 08:09:19;;;;;;;15.40;13.90;;;;;;;17.47;99.25;97909.02;107633;1276;22527;-76
2023/06/29 08:11:46;;;;;;;13.70;12.40;;;;;;;17.46;99.11;97909.84;110369;1276;23333;-77
2023/06/29 08:14:12;;;;;;;13.70;12.40;;;;;;;17.51;99.36;97907.35;110370;1266;22447;-77
2023/06/29 08:16:39;;;;;;;16.90;13.10;;;;;;;17.60;98.90;97903.73;110402;1276;22225;-77
2023/06/29 08:19:05;;;;;;;14.40;12.90;;;;;;;17.71;99.04;97902.80;110380;1276;22669;-77
2023/06/29 08:21:32;;;;;;;15.70;14.20;;;;;;;17.78;97.54;97906.44;109017;1276;25581;-76
2023/06/29 08:23:59;;;;;;;18.20;15.60;;;;;;;17.78;97.11;97909.32;106999;1276;22540;-77
2023/06/29 08:26:25;;;;;;;15.80;14.40;;;;;;;17.81;96.01;97907.23;106984;1276;24186;-76
2023/06/29 08:28:52;;;;;;;15.30;13.80;;;;;;;17.81;96.17;97910.27;106979;1276;22581;-75
2023/06/29 08:31:19;;;;;;;16.20;14.80;;;;;;;17.85;96.62;97908.13;106930;1276;22547;-75
2023/06/29 08:33:46;;;;;;;16.30;14.70;;;;;;;17.83;96.07;97911.71;107025;1277;23901;-75
2023/06/29 08:36:12;;;;;;;16.60;15.10;;;;;;;17.76;95.93;97912.61;107011;1276;25401;-75
2023/06/29 08:38:39;;;;;;;17.10;15.00;;;;;;;17.68;96.26;97918.36;106963;1276;22662;-75
2023/06/29 08:41:06;;;;;;;16.60;14.70;;;;;;;17.61;96.53;97922.83;107036;1276;23383;-75
2023/06/29 08:43:32;;;;;;;20.00;15.80;;;;;;;17.54;96.31;97924.80;107005;1276;22547;-75
2023/06/29 08:46:01;;;;;;;20.80;17.80;;;;;;;17.41;96.45;97928.92;106999;1262;25075;-75
2023/06/29 08:48:31;;;;;;;18.10;16.40;;;;;;;17.37;96.94;97924.59;106996;1276;22666;-76
2023/06/29 08:51:09;;;;;;;19.50;17.70;;;;;;;17.47;96.99;97924.83;106987;1277;25492;-75
2023/06/29 08:53:39;;;;;;;20.20;18.40;;;;;;;17.68;96.70;97923.81;107031;1276;27030;-76
2023/06/29 08:56:07;;;;;;;23.30;18.20;;;;;;;17.86;95.40;97922.65;107027;1277;25414;-76
2023/06/29 08:58:34;;;;;;;20.20;18.00;;;;;;;17.99;95.34;97918.24;106988;1277;25492;-76
2023/06/29 09:01:01;;;;;;;20.80;18.80;;;;;;;18.01;94.25;97918.53;106988;1276;25023;-76
2023/06/29 09:03:28;;;;;;;21.70;19.40;;;;;;;17.95;94.14;97922.82;106991;1276;22541;-75
2023/06/29 09:05:55;;;;;;;21.80;19.50;;;;;;;17.87;94.42;97927.27;110418;1277;22215;-76
2023/06/29 09:08:26;;;;;;;19.60;17.30;;;;;;;17.86;94.04;97925.30;110376;1276;22223;-76
2023/06/29 09:10:53;;;;;;;18.50;16.70;;;;;;;17.89;94.90;97927.73;110366;1277;22258;-76
2023/06/29 09:13:30;;;;;;;17.70;16.00;;;;;;;18.01;94.79;97925.02;107789;1277;25504;-76
2023/06/29 09:16:00;;;;;;;18.50;16.10;;;;;;;18.08;94.03;97926.94;106866;1274;22527;-77
2023/06/29 09:18:28;;;;;;;18.80;17.00;;;;;;;18.19;93.87;97929.64;107184;1273;22996;-76
2023/06/29 09:20:56;;;;;;;16.60;14.80;;;;;;;18.28;93.15;97927.46;106747;1270;24395;-76
2023/06/29 09:23:28;;;;;;;17.40;15.70;;;;;;;18.26;93.15;97930.45;106873;1277;22541;-76
2023/06/29 09:25:57;;;;;;;17.60;15.50;;;;;;;18.31;92.95;97929.27;106733;1272;22537;-75
2023/06/29 09:28:25;;;;;;;17.00;15.30;;;;;;;18.45;92.62;97932.73;106894;1276;25294;-75
2023/06/29 09:30:52;;;;;;;18.00;16.20;;;;;;;18.49;92.09;97931.54;106831;1272;22689;-75
2023/06/29 09:33:20;;;;;;;17.70;16.00;;;;;;;18.57;91.82;97929.80;107195;1269;22524;-77
2023/06/29 09:35:50;;;;;;;17.20;15.60;;;;;;;18.66;90.56;97928.54;106814;1274;22685;-76
2023/06/29 09:38:17;;;;;;;17.90;16.20;;;;;;;18.76;90.01;97935.36;106783;1269;22790;-76
2023/06/29 09:40:47;;;;;;;21.80;16.10;;;;;;;18.88;88.99;97933.17;106714;1270;22559;-76
2023/06/29 09:43:16;;;;;;;19.50;16.90;;;;;;;19.00;89.32;97929.89;107002;1277;22534;-76
2023/06/29 09:45:43;;;;;;;17.10;15.40;;;;;;;19.22;89.21;97930.16;106738;1272;23456;-77
2023/06/29 09:48:12;;;;;;;16.90;13.60;;;;;;;19.46;87.98;97925.56;106730;1277;22533;-76
2023/06/29 09:50:49;;;;;;;14.80;13.40;;;;;;;19.57;85.21;97934.78;107019;1277;22777;-76
2023/06/29 09:53:17;;;;;;;16.40;12.70;;;;;;;19.42;83.84;97934.93;107008;1277;22539;-76
2023/06/29 09:55:46;;;;;;;14.20;12.90;;;;;;;19.29;83.95;97938.52;106614;1278;22689;-75
2023/06/29 09:58:14;;;;;;;13.10;11.90;;;;;;;19.26;84.86;97938.08;106673;1278;22534;-76
2023/06/29 10:00:41;;;;;;;15.10;11.80;;;;;;;19.42;84.67;97934.85;106626;1277;22642;-75
2023/06/29 10:03:08;;;;;;;14.30;13.00;;;;;;;19.54;84.41;97930.98;106653;1277;24219;-75
2023/06/29 10:05:37;;;;;;;14.90;13.50;;;;;;;19.45;82.48;97934.59;106892;1277;23557;-75
2023/06/29 10:08:08;;;;;;;14.40;12.90;;;;;;;19.34;81.07;97933.41;106753;1278;24208;-75
2023/06/29 10:10:36;;;;;;;23.90;17.80;;;;;;;19.39;82.57;97924.95;106820;1278;25800;-75
2023/06/29 10:13:06;;;;;;;15.10;13.50;;;;;;;19.61;81.99;97919.48;106748;1269;22646;-75
2023/06/29 10:15:35;;;;;;;17.30;15.50;;;;;;;19.70;81.45;97925.95;106771;1277;22554;-75
2023/06/29 10:18:12;;;;;;;55.10;29.70;;;;;;;19.83;81.64;97919.27;106703;1278;23948;-75
2023/06/29 10:20:43;;;;;;;24.00;16.40;;;;;;;19.99;80.90;97914.05;106676;1277;22650;-77
2023/06/29 10:23:14;;;;;;;18.10;15.50;;;;;;;20.18;80.38;97914.11;107086;1255;22560;-76
2023/06/29 10:25:44;;;;;;;14.30;12.80;;;;;;;20.22;78.56;97917.08;107044;1278;22630;-78
2023/06/29 10:28:13;;;;;;;13.00;11.60;;;;;;;20.25;77.99;97916.52;106662;1277;23960;-79
2023/06/29 10:30:47;;;;;;;14.20;12.80;;;;;;;20.31;78.79;97913.10;107006;1277;22531;-77
2023/06/29 10:33:22;;;;;;;12.90;11.70;;;;;;;20.38;77.49;97914.73;107204;1269;23446;-79
2023/06/29 10:36:02;;;;;;;13.00;11.60;;;;;;;20.58;77.96;97907.69;107171;1273;22537;-80
2023/06/29 10:38:34;;;;;;;12.60;11.50;;;;;;;20.86;77.84;97906.58;107066;1277;22622;-76
2023/06/29 10:41:06;;;;;;;12.90;11.60;;;;;;;21.09;76.18;97904.06;107287;1277;23467;-78
2023/06/29 10:43:55;;;;;;;14.40;12.90;;;;;;;21.17;75.82;97901.20;107108;1277;25380;-77
2023/06/29 10:46:49;;;;;;;11.90;10.50;;;;;;;21.17;74.60;97900.11;106538;1277;25400;-76
2023/06/29 10:49:23;;;;;;;9.20;8.20;;;;;;;21.08;73.14;97897.63;107060;1278;25407;-78
2023/06/29 10:51:51;;;;;;;9.50;8.50;;;;;;;20.97;72.34;97900.20;107194;1277;25339;-76
2023/06/29 10:54:21;;;;;;;8.50;7.60;;;;;;;20.96;73.56;97894.77;107058;1278;25217;-77
2023/06/29 10:57:10;;;;;;;9.50;7.60;;;;;;;21.16;74.14;97887.64;107045;1278;23387;-80
2023/06/29 10:59:39;;;;;;;7.20;6.50;;;;;;;21.35;72.33;97883.23;106754;1277;23934;-77
2023/06/29 11:02:07;;;;;;;6.80;6.00;;;;;;;21.41;70.84;97882.30;107109;1277;22594;-79
2023/06/29 11:04:34;;;;;;;6.20;4.90;;;;;;;21.57;71.28;97882.05;106780;1277;22588;-76
2023/06/29 11:07:06;;;;;;;6.40;5.50;;;;;;;21.77;70.28;97878.16;106898;1277;24975;-77
2023/06/29 11:09:34;;;;;;;7.20;5.80;;;;;;;21.91;68.92;97874.72;106754;1278;22583;-78